Tiempo atmosférico en la estación meteorológica de San Fernando, Cádiz (28 m.)



Fecha
DESCASC
Temp. máxima en grados centígrados (hora)
DESCASC
Temp. mínima en grados centígrados (hora)
DESCASC
Temp. media en grados centígrados
DESCASC
Racha de viento máxima en m/sg (hora)
DESCASC
Velocidad máxima media en intervalos de 10 minutos(hora)
DESCASC
Precipitaciones diarias en mm
DESCASC
Precipitaciones de 00:00 a 06:00 en mm
DESCASC
Precipitaciones de 06:00 a 12:00 en mm
DESCASC
Precipitaciones de 12:00 a 18:00 en mm
DESCASC
Precipitaciones de 18:00 a 24:00 en mm
DESCASC
25-04-2019 18.9 (14:40) 14.7 (06:50) 16.8 13.89 (06:20) 8.61 (19:10) 1 0.6 0.4 0 0
24-04-2019 19.4 (16:40) 13.3 (00:40) 16.3 14.17 (15:00) 7.22 (02:00) 0 0 0 0 0
23-04-2019 17 (17:30) 12.1 (08:30) 14.6 14.44 (05:50) 9.72 (05:40) 6.5 1.2 3.2 0 2.1
22-04-2019 19.9 (13:00) 14 (00:00) 16.9 14.72 (18:20) 10 (20:10) 0.4 0 0.3 0.1 0
21-04-2019 21.4 (16:20) 13.5 (00:00) 17.4 8.33 (22:30) 5 (22:00) 0 0 0 0 0
20-04-2019 21.2 (18:10) 11.5 (00:00) 16.4 9.44 (14:20) 4.44 (19:10) 0.5 0 0 0 0.5
19-04-2019 18.5 (16:30) 11.8 (00:00) 15.2 6.94 (17:00) 3.89 (16:50) 5.7 0 0 5.7 0
18-04-2019 17.9 (16:10) 12.7 (00:00) 15.3 8.89 (15:00) 6.11 (15:10) 11.8 0 11.8 0 0
17-04-2019 21.5 (13:30) 15.6 (00:00) 18.6 15.28 (09:20) 7.22 (10:50) 0 0 0 0 0
16-04-2019 21.9 (18:00) 12.7 (00:00) 17.3 10 (22:20) 5 (01:00) 0 0 0 0 0
15-04-2019 20.6 (12:30) 15.6 (00:00) 18.1 12.78 (17:10) 8.61 (19:50) 0 0 0 0 0
14-04-2019 22.6 (15:10) 12.7 (00:00) 17.7 6.39 (16:50) 3.89 (16:50) 0 0 0 0 0
13-04-2019 20.1 (13:00) 11.7 (00:00) 15.9 8.89 (17:20) 6.11 (17:20) 0 0 0 0 0
12-04-2019 20.2 (15:10) 11.5 (00:00) 15.9 8.61 (17:10) 5.83 (16:50) 0 0 0 0 0
11-04-2019 17.8 (18:10) 11.4 (00:00) 14.6 11.11 (00:10) 6.94 (00:40) 0 0 0 0 0
10-04-2019 17.4 (17:40) 12 (00:00) 14.7 11.67 (18:20) 8.06 (18:20) 0 0 0 0 0
09-04-2019 18.1 (16:10) 14.2 (00:00) 16.2 12.22 (15:40) 8.06 (16:10) 0 0 0 0 0
08-04-2019 18.2 (14:00) 14.2 (00:00) 16.2 11.39 (12:50) 6.94 (21:00) 1.6 0 0 1.6 0
07-04-2019 17.8 (14:30) 12.3 (00:00) 15 12.78 (16:50) 7.78 (16:50) 1.8 0.3 0 0 1.5
06-04-2019 16.1 (17:10) 10.5 (00:00) 13.3 15.28 (04:30) 9.72 (19:10) 8.7 1.9 5.5 1.3 0
05-04-2019 15 (17:40) 11.6 (00:00) 13.3 16.11 (11:00) 10 (20:50) 13.8 0.6 13 0 0.2
04-04-2019 16.6 (00:30) 9.7 (00:00) 13.2 11.11 (23:40) 6.67 (23:50) 0 0 0 0 0
03-04-2019 19.5 (16:40) 12.5 (00:00) 16 8.61 (18:00) 5.83 (15:10) 0 0 0 0 0
02-04-2019 19.9 (14:20) 11.7 (00:00) 15.8 6.94 (18:00) 4.17 (18:20) 0 0 0 0 0
01-04-2019 19.9 (15:10) 13.8 (00:00) 16.8 9.72 (16:20) 5.56 (16:20) 0.4 0 0.3 0.1 0
31-03-2019 21.1 (15:00) 13.5 (00:00) 17.3 8.61 (04:30) 5.28 (03:50) 0 0 0 0 0
30-03-2019 21 (14:00) 13.7 (00:00) 17.3 18.61 (03:20) 9.72 (03:20) 0.7 0.7 0 0 0
29-03-2019 21.3 (13:50) 13.5 (00:00) 17.4 17.5 (01:30) 9.17 (00:30) 0 0 0 0 0
28-03-2019 20.5 (14:00) 13 (00:00) 16.8 18.33 (14:40) 9.72 (16:30) 0 0 0 0 0
27-03-2019 20.5 (13:40) 14.1 (00:00) 17.3 21.11 (13:00) 10.83 (13:00) 0 0 0 0 0

Gráficas

Temp. máximas Temp. mínimas Temp. medias Precipitaciones Rachas de viento máximas Velocidades máximas media en intervalos de 10 minutos

Datos horarios

Fecha y hora oficial Temperatura (ºC) Velocidad del viento (km/h) Dirección del viento Racha (km/h) Dirección de racha Precipitación (mm) Presión (hPa) Tendencia (hPa) Humedad (%)
2019-04-25 23:00:00 16.3 17 Oeste 36 Oeste 0 1018.4 2.3 69
2019-04-25 22:00:00 16.2 23 Oeste 38 Oeste 0 1017.6 1.6 67
2019-04-25 21:00:00 16.3 23 Oeste 38 Oeste 0 1016.7 1 64
2019-04-25 20:00:00 16.9 26 Oeste 45 Oeste 0 1016.1 0.8 62
2019-04-25 19:00:00 17.7 27 Oeste 42 Oeste 0 1016 0.8 59
2019-04-25 18:00:00 18.1 27 Oeste 41 Oeste 0 1015.7 1 58
2019-04-25 17:00:00 18 25 Oeste 41 Oeste 0 1015.3 0.7 57
2019-04-25 16:00:00 18 26 Oeste 41 Oeste 0 1015.2 0.5 59
2019-04-25 15:00:00 18.5 24 Oeste 40 Oeste 0 1014.7 0.5 65
2019-04-25 14:00:00 18.1 13 Oeste 24 Oeste 0 1014.6 1 67
2019-04-25 13:00:00 17.1 11 Oeste 20 Oeste 0 1014.7 1.7 70
2019-04-25 12:00:00 16.5 13 Oeste 21 Oeste 0 1014.2 1.9 75
2019-04-25 11:00:00 16.6 9 Sudoeste 22 Oeste 0 1013.6 2.4 82
2019-04-25 10:00:00 15.8 13 Oeste 25 Oeste 0 1013 2.2 77
2019-04-25 09:00:00 15.9 17 Oeste 27 Oeste 0 1012.3 2 83
2019-04-25 08:00:00 15.6 18 Oeste 32 Oeste 0 1011.2 0.9 93
2019-04-25 07:00:00 14.7 21 Oeste 50 Oeste 0.4 1010.8 0.5 93
2019-04-25 06:00:00 16.6 19 Sudoeste 40 Sudoeste 0 1010.3 -0.4 89
2019-04-25 05:00:00 16.4 21 Sudoeste 48 Sudoeste 0.1 1010.3 -0.6 91
2019-04-25 04:00:00 16.8 25 Sudoeste 45 Sudoeste 0 1010.3 -0.6 89
2019-04-25 03:00:00 16.8 20 Sudoeste 42 Sudoeste 0 1010.7 -0.5 90
2019-04-25 02:00:00 16.2 21 Sudoeste 40 Sudoeste 0.5 1010.9 0 91
2019-04-25 01:00:00 16.8 23 Sudoeste 44 Sudoeste 0 1010.9 0.6 87
2019-04-25 00:00:00 16.7 22 Sudoeste 46 Sudoeste 0 1011.2 1.5 85
2019-04-24 23:00:00 16.9 19 Sudoeste 46 Sudoeste 0 1010.9 1.5 84
2019-04-24 22:00:00 16.9 20 Sudoeste 42 Sudoeste 0 1010.3 1 83
2019-04-24 21:00:00 17.1 21 Sudoeste 44 Oeste 0 1009.7 0.3 78
2019-04-24 20:00:00 17.6 21 Sudoeste 47 Sudoeste 0 1009.4 0.3 73
2019-04-24 19:00:00 17.5 22 Sudoeste 44 Sudoeste 0 1009.3 0.2 70
2019-04-24 18:00:00 18.2 23 Sudoeste 47 Sudoeste 0 1009.4 0.2 68
2019-04-24 17:00:00 18.9 22 Sudoeste 44 Sudoeste 0 1009.1 -0.1 65
2019-04-24 16:00:00 18.4 23 Sudoeste 47 Sudoeste 0 1009.1 -0.1 67
2019-04-24 15:00:00 17.9 23 Sudoeste 51 Sudoeste 0 1009.2 0.3 65
2019-04-24 14:00:00 17.7 24 Sudoeste 43 Sudoeste 0 1009.2 0.9 62
2019-04-24 13:00:00 17.1 20 Sudoeste 43 Sudoeste 0 1009.2 1.3 65
2019-04-24 12:00:00 17 20 Sudoeste 45 Oeste 0 1008.9 1.5 65
2019-04-24 11:00:00 16.9 20 Sudoeste 40 Sudoeste 0 1008.3 1.7 63
2019-04-24 10:00:00 16.5 21 Sudoeste 40 Sudoeste 0 1007.9 1.9 64
2019-04-24 09:00:00 15.7 18 Sudoeste 42 Sudoeste 0 1007.4 1.8 67
2019-04-24 08:00:00 14.9 18 Sudoeste 38 Oeste 0 1006.6 0.8 70
2019-04-24 07:00:00 14.6 14 Sudoeste 37 Sudoeste 0 1006 0.2 67
2019-04-24 06:00:00 14.7 15 Sudoeste 31 Sudoeste 0 1005.6 -0.3 68
2019-04-24 05:00:00 14.5 15 Oeste 32 Sudoeste 0 1005.8 -0.5 68
2019-04-24 04:00:00 14.3 20 Oeste 39 Oeste 0 1005.8 0.1 66
2019-04-24 03:00:00 14 20 Oeste 41 Oeste 0 1005.9 0.1 66
2019-04-24 02:00:00 14.1 26 Oeste 42 Oeste 0 1006.3 0.7 68
2019-04-24 01:00:00 13.6 21 Oeste 43 Oeste 0 1005.7 1 71
2019-04-24 00:00:00 13.7 21 Oeste 34 Oeste 0.1 1005.8 1.6 74
2019-04-23 23:00:00 13.8 28 Oeste 47 Oeste 2 1005.6 1.9 67
2019-04-23 22:00:00 14.5 22 Oeste 43 Oeste 0 1004.7 1.3 58
2019-04-23 21:00:00 14.8 23 Oeste 43 Oeste 0 1004.2 1.4 59
2019-04-23 20:00:00 15.6 28 Oeste 46 Oeste 0 1003.7 1.1 53
2019-04-23 19:00:00 16.3 28 Oeste 43 Oeste 0 1003.4 0.9 49
2019-04-23 18:00:00 16.5 29 Oeste 46 Oeste 0 1002.8 0.7 49
2019-04-23 17:00:00 16.3 29 Oeste 44 Oeste 0 1002.6 0.4 49
2019-04-23 16:00:00 16.4 26 Oeste 41 Oeste 0 1002.5 0.5 50
2019-04-23 15:00:00 15.9 23 Oeste 40 Oeste 0 1002.1 0.6 53
2019-04-23 14:00:00 15.6 18 Oeste 31 Noroeste 0 1002.2 1.2 53
2019-04-23 13:00:00 14.8 17 Oeste 32 Noroeste 0 1002 2.1 53
2019-04-23 12:00:00 14.6 18 Noroeste 32 Oeste 0 1001.5 2.2 55
2019-04-23 11:00:00 14 22 Noroeste 37 Noroeste 0 1001 2.4 56
2019-04-23 10:00:00 13.9 19 Noroeste 37 Noroeste 0 999.9 1.8 63
2019-04-23 09:00:00 12.5 12 Noroeste 42 Noroeste 0.6 999.3 1.6 88
2019-04-23 08:00:00 13.2 17 Noroeste 28 Noroeste 0.5 998.6 0.8 85
2019-04-23 07:00:00 12.7 23 Noroeste 41 Noroeste 2.1 998.1 -0.4 91
2019-04-23 06:00:00 13.9 30 Oeste 52 Oeste 0.8 997.7 -2 91
2019-04-23 05:00:00 15.5 20 Sudoeste 39 Sudoeste 0.4 997.8 -2.5 83
2019-04-23 04:00:00 16.4 15 Sudoeste 31 Sudoeste 0 998.5 -2.3 77
2019-04-23 03:00:00 16.3 15 Sudoeste 30 Sudoeste 0 999.7 -1.3 76
2019-04-23 02:00:00 16.5 13 Sudoeste 30 Sudoeste 0 1000.3 -0.7 77
2019-04-23 01:00:00 16.5 13 Oeste 28 Sudoeste 0 1000.8 0 79
2019-04-23 00:00:00 16.5 12 Oeste 36 Sudoeste 0 1001 0.4 79
2019-04-22 23:00:00 16.8 20 Oeste 43 Oeste 0 1001 0.2 76
2019-04-22 22:00:00 16.7 30 Oeste 45 Oeste 0 1000.8 -0.1 75
2019-04-22 21:00:00 16.7 27 Oeste 49 Oeste 0 1000.6 -0.1 78
2019-04-22 20:00:00 17.1 29 Oeste 51 Oeste 0 1000.8 -0.2 78
2019-04-22 19:00:00 17.9 21 Oeste 53 Oeste 0 1000.9 -0.5 78
2019-04-22 18:00:00 18.7 24 Oeste 45 Oeste 0 1000.7 -1 74
2019-04-22 17:00:00 18.8 19 Oeste 41 Oeste 0 1001 -1.1 74
2019-04-22 16:00:00 19.1 21 Oeste 39 Oeste 0.1 1001.4 -1.2 73
2019-04-22 15:00:00 18.8 20 Oeste 35 Oeste 0 1001.7 -1.2 73
2019-04-22 14:00:00 19.1 14 Sudoeste 26 Sudoeste 0 1002.1 -0.8 74
2019-04-22 13:00:00 19.4 9 Sudoeste 20 Sur 0 1002.6 -0.3 72
2019-04-22 12:00:00 18.4 10 Sur 20 Sudoeste 0 1002.9 0.8 89
2019-04-22 11:00:00 16.7 3 Sur 13 Sur 0.3 1002.9 1.1 92
2019-04-22 10:00:00 15.4 0 Calma 10 Sudeste 0 1002.9 1.2 92
2019-04-22 09:00:00 14.5 6 Sudeste 13 Sudeste 0 1002.1 0.1 92
2019-04-22 08:00:00 14.3 3 Este 5 Este 0 1001.8 -0.6 91
2019-04-22 07:00:00 14.8 2 Este 9 Este 0 1001.7 -1.1 90
2019-04-22 06:00:00 16.1 3 Norte 14 Noroeste 0 1002 -1.5 88
2019-04-22 05:00:00 16.2 10 Noroeste 18 Oeste 0 1002.4 -1.7 88
2019-04-22 04:00:00 15.9 9 Oeste 15 Noroeste 0 1002.8 -1.4 87
2019-04-22 03:00:00 16 0 Calma 16 Noroeste 0 1003.5 -0.9 85
2019-04-22 02:00:00 16.5 9 Noroeste 17 Noroeste 0 1004.1 -0.4 81
2019-04-22 01:00:00 16.5 12 Noroeste 22 Noroeste 0 1004.2 0 77
2019-04-22 00:00:00 16.7 11 Noroeste 25 Noroeste 0 1004.4 0.9 76
2019-04-21 23:00:00 17 17 Noroeste 30 Noroeste 0 1004.5 1.5 73
2019-04-21 22:00:00 16.9 18 Noroeste 28 Noroeste 0 1004.2 1.3 72
2019-04-21 21:00:00 17.1 15 Noroeste 28 Noroeste 0 1003.5 0.6 70
2019-04-21 20:00:00 18.8 13 Noroeste 22 Nordeste 0 1003 -0.2 59
2019-04-21 19:00:00 20.3 9 Nordeste 22 Nordeste 0 1002.9 -0.7 44
2019-04-21 18:00:00 20.3 7 Nordeste 19 Norte 0 1002.9 -1.1 46
2019-04-21 17:00:00 20.4 9 Norte 21 Norte 0 1003.2 -1.4 46
2019-04-21 16:00:00 20.5 7 Nordeste 23 Nordeste 0 1003.6 -1.8 46
2019-04-21 15:00:00 20.5 7 Nordeste 20 Norte 0 1004 -1.7 51
2019-04-21 14:00:00 19.4 7 Nordeste 21 Nordeste 0 1004.6 -0.9 55
2019-04-21 13:00:00 18 4 Norte 18 Noroeste 0 1005.4 -0.1 64
2019-04-21 12:00:00 16.2 6 Norte 18 Norte 0 1005.7 -0.1 73
2019-04-21 11:00:00 15.1 3 Norte 11 Norte 0 1005.5 -0.4 82
2019-04-21 10:00:00 14.8 2 Norte 9 Norte 0 1005.5 -0.3 87
2019-04-21 09:00:00 14.2 2 Este 6 Este 0 1005.8 -0.3 90
2019-04-21 08:00:00 13.7 5 Nordeste 13 Nordeste 0 1005.9 -0.5 90
2019-04-21 07:00:00 13.7 5 Nordeste 13 Este 0 1005.8 -0.8 89
2019-04-21 06:00:00 13.7 5 Este 11 Este 0 1006.1 -1.3 86
2019-04-21 05:00:00 14.1 6 Este 12 Este 0 1006.4 -1.5 85
2019-04-21 04:00:00 14.2 5 Este 13 Este 0 1006.6 -2 85
2019-04-21 03:00:00 14.2 5 Este 13 Este 0 1007.4 -1.2 85
2019-04-21 02:00:00 14.6 9 Este 14 Este 0 1007.9 -0.8 83
2019-04-21 01:00:00 15.1 7 Este 23 Sudeste 0 1008.6 0.4 81
2019-04-21 00:00:00 15.5 11 Este 22 Este 0 1008.6 0.9 82
2019-04-20 23:00:00 15.5 13 Este 26 Este 0 1008.7 2.1 85
2019-04-20 22:00:00 15.7 10 Este 21 Nordeste 0.5 1008.2 1.9 80
2019-04-20 21:00:00 17.8 8 Este 21 Este 0 1007.7 1.5 65
2019-04-20 20:00:00 18.4 11 Este 28 Nordeste 0 1006.6 0.3 63
2019-04-20 19:00:00 20.1 14 Este 26 Este 0 1006.3 -0.7 54
2019-04-20 18:00:00 21.1 7 Nordeste 19 Norte 0 1006.2 -0.8 47
2019-04-20 17:00:00 20.5 5 Nordeste 20 Norte 0 1006.3 -1.1 49
2019-04-20 16:00:00 20 6 Nordeste 21 Nordeste 0 1007 -0.8 52
2019-04-20 15:00:00 18.7 9 Norte 34 Norte 0 1007 -1.1 56
2019-04-20 14:00:00 18.2 10 Nordeste 33 Este 0 1007.4 -1.2 58
2019-04-20 13:00:00 16.9 12 Nordeste 28 Nordeste 0 1007.8 -1.1 63
2019-04-20 12:00:00 16.2 9 Nordeste 32 Este 0 1008.1 -0.9 64
2019-04-20 11:00:00 14.8 10 Nordeste 24 Nordeste 0 1008.6 -0.1 68
2019-04-20 10:00:00 13.4 7 Nordeste 24 Nordeste 0 1008.9 0.4 76
2019-04-20 09:00:00 11.6 6 Nordeste 17 Nordeste 0 1009 0.5 86
2019-04-20 08:00:00 12 5 Nordeste 16 Nordeste 0 1008.7 -0.9 85
2019-04-20 07:00:00 12 8 Nordeste 16 Nordeste 0 1008.5 -1.6 83
2019-04-20 06:00:00 11.8 4 Nordeste 11 Nordeste 0 1008.5 -1.4 85
2019-04-20 05:00:00 12.5 5 Este 12 Nordeste 0 1009.6 -1.2 85
2019-04-20 04:00:00 12.7 6 Nordeste 20 Este 0 1010.1 -0.8 82
2019-04-20 03:00:00 13 3 Nordeste 10 Nordeste 0 1009.9 -2 80
2019-04-20 02:00:00 13.2 7 Este 12 Este 0 1010.8 -1.6 77
2019-04-20 01:00:00 13.6 8 Este 14 Este 0 1010.9 -1 76
2019-04-20 00:00:00 14.3 4 Nordeste 18 Este 0 1011.9 0.7 74
2019-04-19 23:00:00 14.8 10 Nordeste 19 Nordeste 0 1012.4 1.5 72
2019-04-19 22:00:00 15.7 6 Nordeste 14 Nordeste 0 1011.9 1 69
2019-04-19 21:00:00 16.5 2 Norte 19 Noroeste 0 1011.2 0.5 68
2019-04-19 20:00:00 17.6 11 Noroeste 22 Noroeste 0 1010.9 0.2 66
2019-04-19 19:00:00 17.4 12 Oeste 24 Oeste 0 1010.9 -0.1 68
2019-04-19 18:00:00 18.1 14 Oeste 24 Oeste 0 1010.7 -0.8 67
2019-04-19 17:00:00 17.6 14 Sudoeste 25 Sudoeste 0 1010.7 -1 67
2019-04-19 16:00:00 17.8 6 Sudoeste 23 Sur 0 1011 -1.2 71
2019-04-19 15:00:00 16.9 12 Sur 20 Sur 0 1011.5 -0.5 86
2019-04-19 14:00:00 15.6 8 Sur 14 Sur 4.3 1011.7 0.2 87
2019-04-19 13:00:00 16 4 Sudeste 20 Oeste 1.4 1012.2 1.1 79
2019-04-19 12:00:00 15.8 12 Oeste 18 Oeste 0 1012 0.9 76
2019-04-19 11:00:00 15.9 6 Sudoeste 14 Oeste 0 1011.5 0.8 79
2019-04-19 10:00:00 15.5 4 Sudeste 12 Sudeste 0 1011.1 0.7 83
2019-04-19 09:00:00 12.5 6 Sudeste 14 Sudeste 0 1011.1 0.7 91
2019-04-19 08:00:00 11.9 7 Sudeste 14 Sudeste 0 1010.7 0 90
2019-04-19 07:00:00 12.5 5 Este 11 Sudeste 0 1010.4 -0.5 88
2019-04-19 06:00:00 13.5 4 Este 9 Este 0 1010.4 -1.1 83
2019-04-19 05:00:00 15.1 6 Oeste 13 Oeste 0 1010.7 -1 75
2019-04-19 04:00:00 15.3 7 Oeste 16 Oeste 0 1010.9 -0.9 73
2019-04-19 03:00:00 15.4 9 Oeste 19 Oeste 0 1011.5 -0.3 73
2019-04-19 02:00:00 15.5 9 Oeste 22 Oeste 0 1011.7 0.1 73
2019-04-19 01:00:00 15.6 10 Oeste 18 Noroeste 0 1011.8 0.6 74
2019-04-19 00:00:00 15.6 11 Oeste 21 Oeste 0 1011.8 0.9 74
2019-04-18 23:00:00 15.6 12 Oeste 21 Oeste 0 1011.6 0.8 73
2019-04-18 22:00:00 15.7 12 Oeste 24 Oeste 0 1011.2 0.6 77
2019-04-18 21:00:00 15.9 13 Oeste 26 Oeste 0 1010.9 0.6 72
2019-04-18 20:00:00 16.9 17 Oeste 27 Oeste 0 1010.8 0.7 66
2019-04-18 19:00:00 17.3 19 Oeste 31 Oeste 0 1010.6 0.6 59
2019-04-18 18:00:00 17.6 18 Oeste 30 Oeste 0 1010.3 0.2 61
2019-04-18 17:00:00 17.6 18 Oeste 31 Oeste 0 1010.1 -0.3 62
2019-04-18 16:00:00 17.3 16 Oeste 31 Oeste 0 1010 -1 67
2019-04-18 15:00:00 16.6 20 Oeste 32 Oeste 0 1010.1 -0.9 70
2019-04-18 14:00:00 15.5 8 Sudoeste 21 Sudoeste 0 1010.4 -0.2 77
2019-04-18 13:00:00 15.1 9 Sur 19 Sur 0 1011 0.4 87
2019-04-18 12:00:00 14.9 10 Sur 20 Sur 0 1011 0.6 91
2019-04-18 11:00:00 14.2 6 Sudeste 21 Sudeste 0.9 1010.6 0.6 91
2019-04-18 10:00:00 13.8 3 Sudeste 13 Este 0.2 1010.6 0.9 91
2019-04-18 09:00:00 13.3 0 Calma 13 Noroeste 1.1 1010.4 1.3 91
2019-04-18 08:00:00 12.8 0 Calma 14 Sudoeste 3.8 1010 0.8 88
2019-04-18 07:00:00 13.9 8 Oeste 19 Noroeste 5.8 1009.7 0.1 82
2019-04-18 06:00:00 15.1 0 Calma 4 Oeste 0 1009.1 -0.9 82
2019-04-18 05:00:00 15.2 5 Oeste 14 Oeste 0 1009.2 -1.5 80
2019-04-18 04:00:00 15.2 8 Oeste 17 Oeste 0 1009.6 -1 79
2019-04-18 03:00:00 15.8 12 Oeste 21 Oeste 0 1010 -0.9 76
2019-04-18 02:00:00 15.9 14 Oeste 21 Oeste 0 1010.7 0.1 76
2019-04-18 01:00:00 15.9 9 Oeste 24 Oeste 0 1010.6 1.1 74
2019-04-18 00:00:00 17 9 Sur 22 Sur 0 1010.9 1.7 65
2019-04-17 23:00:00 16.8 8 Sudoeste 21 Sudeste 0 1010.6 0.7 57
2019-04-17 22:00:00 16.5 6 Sudeste 23 Sudeste 0 1009.5 -0.7 62
2019-04-17 21:00:00 16.8 10 Sudeste 18 Sudeste 0 1009.2 0.1 62
2019-04-17 20:00:00 16.7 4 Sudoeste 26 Oeste 0 1009.9 2.3 62
2019-04-17 19:00:00 16.5 14 Oeste 37 Oeste 0 1010.2 1.9 68
2019-04-17 18:00:00 16.9 22 Oeste 45 Oeste 0 1009.1 1.8 67
2019-04-17 17:00:00 20.7 10 Sur 25 Sudoeste 0 1007.6 -0.3 64
2019-04-17 16:00:00 20.6 8 Sudeste 44 Sudeste 0 1008.3 0.4 63
2019-04-17 15:00:00 20.4 19 Sudeste 48 Sudeste 0 1007.3 -0.5 61
2019-04-17 14:00:00 20.4 23 Este 46 Este 0 1007.9 0.9 61
2019-04-17 13:00:00 20.9 23 Sudeste 49 Sudeste 0 1007.9 1.4 59
2019-04-17 12:00:00 19.4 22 Este 54 Sudeste 0 1007.8 1.4 65
2019-04-17 11:00:00 18.6 23 Sudeste 52 Sudeste 0 1007 0.8 67
2019-04-17 10:00:00 17.6 23 Este 55 Sudeste 0 1006.5 0.5 70
2019-04-17 09:00:00 17 24 Sudeste 53 Sudeste 0 1006.4 0.5 73
2019-04-17 08:00:00 16.6 20 Sudeste 50 Sudeste 0 1006.2 -0.3 72
2019-04-17 07:00:00 16.3 16 Sudeste 37 Sudeste 0 1006 -1.5 72
2019-04-17 06:00:00 16.4 19 Sudeste 47 Sudeste 0 1005.9 -2.1 72
2019-04-17 05:00:00 16.6 20 Sudeste 46 Sudeste 0 1006.5 -2.2 73
2019-04-17 04:00:00 16.6 21 Este 51 Este 0 1007.5 -2.1 69
2019-04-17 03:00:00 17.1 19 Este 41 Sudeste 0 1008 -1.5 62
2019-04-17 02:00:00 17.3 18 Este 37 Sudeste 0 1008.7 -0.2 57
2019-04-17 01:00:00 17.3 12 Sudeste 28 Sudeste 0 1009.6 1.1 59
2019-04-17 00:00:00 17.8 12 Sudeste 32 Sudeste 0 1009.5 0.6 54
2019-04-16 23:00:00 17.9 17 Este 36 Sudeste 0 1008.9 -0.4 55
2019-04-16 22:00:00 18.7 13 Este 24 Este 0 1008.5 -0.8 47
2019-04-16 21:00:00 19.7 9 Este 20 Este 0 1008.9 -1 49
2019-04-16 20:00:00 21 3 Sudoeste 14 Sudoeste 0 1009.3 -1.2 51
2019-04-16 19:00:00 21.1 9 Sudoeste 19 Sudoeste 0 1009.3 -2.2 52
2019-04-16 18:00:00 21.4 10 Sudoeste 21 Sudoeste 0 1009.9 -2.5 52
2019-04-16 17:00:00 19.7 10 Oeste 18 Noroeste 0 1010.5 -2.7 67
2019-04-16 16:00:00 19.4 11 Oeste 18 Noroeste 0 1011.5 -2.3 64
2019-04-16 15:00:00 20 11 Sudoeste 22 Oeste 0 1012.4 -2.2 60
2019-04-16 14:00:00 19.3 12 Sudoeste 22 Oeste 0 1013.2 -1.2 61
2019-04-16 13:00:00 19.5 10 Oeste 16 Oeste 0 1013.8 -0.8 60
2019-04-16 12:00:00 18.8 7 Noroeste 14 Noroeste 0 1014.6 0.2 61
2019-04-16 11:00:00 18.7 4 Nordeste 11 Este 0 1014.4 0.1 65
2019-04-16 10:00:00 16.5 4 Este 8 Este 0 1014.6 0.2 79
2019-04-16 09:00:00 13.6 3 Este 6 Este 0 1014.4 -0.3 91
2019-04-16 08:00:00 12.7 3 Este 7 Sudeste 0 1014.3 -1.1 91
2019-04-16 07:00:00 13.4 2 Este 5 Este 0 1014.4 -1.2 89
2019-04-16 06:00:00 13.9 3 Este 11 Sudeste 0 1014.7 -1.2 85
2019-04-16 05:00:00 15.2 0 Calma 11 Norte 0 1015.4 -0.6 80
2019-04-16 04:00:00 15.9 4 Norte 18 Noroeste 0 1015.6 -0.5 76
2019-04-16 03:00:00 16.2 12 Oeste 25 Oeste 0 1015.9 -0.2 82
2019-04-16 02:00:00 16.1 15 Oeste 26 Oeste 0 1016 0.4 83
2019-04-16 01:00:00 16.2 18 Oeste 28 Oeste 0 1016.1 0.8 80
2019-04-16 00:00:00 16.1 17 Oeste 28 Oeste 0 1016.1 1.6 78
2019-04-15 23:00:00 16.1 19 Oeste 32 Oeste 0 1015.6 1.2 76
2019-04-15 22:00:00 16.3 19 Oeste 40 Oeste 0 1015.3 1.9 76
2019-04-15 21:00:00 16.9 24 Oeste 38 Oeste 0 1014.5 0.9 74
2019-04-15 20:00:00 17.9 28 Oeste 45 Oeste 0 1014.4 0.9 74
2019-04-15 19:00:00 18.5 27 Oeste 42 Oeste 0 1013.4 0.8 72
2019-04-15 18:00:00 19.5 20 Oeste 46 Oeste 0 1013.6 1.2 74
2019-04-15 17:00:00 19.6 28 Oeste 45 Oeste 0 1013.5 1.1 73
2019-04-15 16:00:00 19.5 20 Oeste 38 Oeste 0 1012.6 0.8 70
2019-04-15 15:00:00 19.9 15 Oeste 32 Oeste 0 1012.4 0.8 67
2019-04-15 14:00:00 18.4 21 Oeste 32 Oeste 0 1012.4 0.9 77
2019-04-15 13:00:00 19.4 18 Oeste 28 Oeste 0 1011.8 0.9 67
2019-04-15 12:00:00 20.1 5 Oeste 18 Noroeste 0 1011.6 1.1 48
2019-04-15 11:00:00 19.6 9 Oeste 21 Oeste 0 1011.5 1.8 48
2019-04-15 10:00:00 18 4 Sudoeste 12 Sudoeste 0 1010.9 2 83
2019-04-15 09:00:00 17.3 4 Sudoeste 9 Sudoeste 0 1010.5 2 81
2019-04-15 08:00:00 16.2 3 Sur 9 Sur 0 1009.7 1.6 68
2019-04-15 07:00:00 16.4 3 Sur 9 Sudeste 0 1008.9 0.2 61
2019-04-15 06:00:00 15.8 6 Sur 12 Sudeste 0 1008.5 -1.1 62
2019-04-15 05:00:00 16 7 Sudeste 15 Sudeste 0 1008.1 -2.7 65
2019-04-15 04:00:00 16.3 8 Sudeste 14 Sudeste 0 1008.7 -2.4 71
2019-04-15 03:00:00 16.6 6 Este 10 Este 0 1009.6 -2.2 75
2019-04-15 02:00:00 17.6 2 Sudeste 7 Sudeste 0 1010.8 -0.9 80
2019-04-15 01:00:00 18.3 0 Calma 4 Nordeste 0 1011.1 -0.6 72
2019-04-15 00:00:00 18.8 0 Calma 4 Sudoeste 0 1011.8 0.4 69
2019-04-14 23:00:00 19.1 0 Calma 9 Oeste 0 1011.7 0.3 68
2019-04-14 22:00:00 20.7 4 Sudoeste 8 Sudoeste 0 1011.7 -0.3 56
2019-04-14 21:00:00 20.6 3 Noroeste 6 Norte 0 1011.4 -0.6 53
2019-04-14 20:00:00 20.7 0 Calma 12 Oeste 0 1011.4 -1.2 58
2019-04-14 19:00:00 20.8 9 Oeste 17 Oeste 0 1012 -1.3 56
2019-04-14 18:00:00 20.9 12 Oeste 19 Oeste 0 1012 -1.9 57
2019-04-14 17:00:00 22.1 12 Oeste 23 Oeste 0 1012.6 -2.1 55
2019-04-14 16:00:00 22.1 11 Oeste 18 Oeste 0 1013.3 -1.6 61
2019-04-14 15:00:00 22.4 10 Sudoeste 18 Sudoeste 0 1013.9 -1.3 59
2019-04-14 14:00:00 21.3 12 Oeste 18 Oeste 0 1014.7 -0.9 64
2019-04-14 13:00:00 19.9 9 Noroeste 16 Oeste 0 1014.9 -0.5 58
2019-04-14 12:00:00 19.6 4 Noroeste 9 Norte 0 1015.2 0.1 64
2019-04-14 11:00:00 18.5 2 Este 7 Este 0 1015.6 0.7 72
2019-04-14 10:00:00 16.2 0 Calma 6 Sudeste 0 1015.4 0.8 81
2019-04-14 09:00:00 12.9 4 Este 8 Sudeste 0 1015.1 0.4 86
2019-04-14 08:00:00 13.2 0 Calma 4 Este 0 1014.9 -0.3 86
2019-04-14 07:00:00 14 2 Sudeste 6 Sudeste 0 1014.6 -1 82
2019-04-14 06:00:00 14.5 3 Nordeste 4 Nordeste 0 1014.7 -1.3 82
2019-04-14 05:00:00 14.2 3 Sudeste 5 Sudeste 0 1015.2 -1.3 84
2019-04-14 04:00:00 14.3 3 Sudeste 8 Sudeste 0 1015.6 -1.5 86
2019-04-14 03:00:00 14.8 4 Este 7 Sudeste 0 1016 -1.6 83
2019-04-14 02:00:00 16 4 Este 7 Noroeste 0 1016.5 -0.9 75
2019-04-14 01:00:00 16.6 6 Noroeste 11 Oeste 0 1017.1 0.1 72
2019-04-14 00:00:00 16.7 7 Noroeste 14 Noroeste 0 1017.6 0.9 76
2019-04-13 23:00:00 16.9 9 Noroeste 17 Oeste 0 1017.4 1.1 77
2019-04-13 22:00:00 16.7 8 Oeste 23 Oeste 0 1017 1.2 79
2019-04-13 21:00:00 17.1 12 Oeste 22 Oeste 0 1016.7 0.8 76
2019-04-13 20:00:00 18 14 Oeste 23 Oeste 0 1016.3 0.1 70
2019-04-13 19:00:00 18.6 15 Oeste 26 Oeste 0 1015.8 -0.7 67
2019-04-13 18:00:00 18.7 17 Oeste 32 Oeste 0 1015.9 -0.8 65
2019-04-13 17:00:00 19.5 20 Oeste 30 Oeste 0 1016.2 -0.6 64
2019-04-13 16:00:00 19.5 17 Oeste 29 Oeste 0 1016.5 -0.5 63
2019-04-13 15:00:00 19.2 13 Sudoeste 29 Oeste 0 1016.7 -0.5 64
2019-04-13 14:00:00 19.2 14 Sudoeste 24 Sudoeste 0 1016.8 -0.3 58
2019-04-13 13:00:00 19.9 6 Sur 15 Sur 0 1017 0.3 59
2019-04-13 12:00:00 18.7 7 Sudoeste 15 Sudoeste 0 1017.2 1 66
2019-04-13 11:00:00 17.5 4 Sur 11 Sur 0 1017.1 1.6 75
2019-04-13 10:00:00 15.6 4 Sudeste 9 Sudeste 0 1016.7 1.2 83
2019-04-13 09:00:00 12.4 3 Este 5 Este 0 1016.2 1.1 88
2019-04-13 08:00:00 11.8 3 Sudeste 6 Sur 0 1015.5 0.4 88
2019-04-13 07:00:00 13 3 Sudeste 6 Sudeste 0 1015.5 0.2 88
2019-04-13 06:00:00 12.3 3 Este 8 Sudeste 0 1015.1 -0.5 88
2019-04-13 05:00:00 12.6 4 Este 8 Sudeste 0 1015.1 -0.9 85
2019-04-13 04:00:00 13.3 2 Sudeste 6 Sudeste 0 1015.3 -0.7 82
2019-04-13 03:00:00 14.1 3 Sudeste 8 Sudeste 0 1015.6 -0.4 81
2019-04-13 02:00:00 14.7 3 Este 6 Norte 0 1016 0.5 76
2019-04-13 01:00:00 16.5 3 Noroeste 15 Noroeste 0 1016 1.1 67
2019-04-13 00:00:00 16.5 12 Noroeste 19 Noroeste 0 1016 1.8 70
2019-04-12 23:00:00 16.4 13 Noroeste 21 Noroeste 0 1015.5 1.6 75
2019-04-12 22:00:00 16.5 10 Noroeste 21 Oeste 0 1014.9 1 74
2019-04-12 21:00:00 17 15 Oeste 26 Oeste 0 1014.2 0.3 66
2019-04-12 20:00:00 17.9 14 Oeste 26 Oeste 0 1013.9 -0.3 59
2019-04-12 19:00:00 18.3 16 Oeste 28 Oeste 0 1013.9 -0.8 56
2019-04-12 18:00:00 18.7 17 Oeste 31 Oeste 0 1013.9 -1.4 53
2019-04-12 17:00:00 18.5 18 Oeste 30 Oeste 0 1014.2 -1.4 59
2019-04-12 16:00:00 18.3 17 Oeste 24 Oeste 0 1014.7 -1.2 68
2019-04-12 15:00:00 19.6 11 Oeste 19 Sudoeste 0 1015.3 -0.6 64
2019-04-12 14:00:00 18.8 8 Oeste 17 Noroeste 0 1015.6 0 69
2019-04-12 13:00:00 17.6 8 Noroeste 12 Oeste 0 1015.9 0.6 76
2019-04-12 12:00:00 16.7 0 Calma 6 Sur 0 1015.9 0.9 85
2019-04-12 11:00:00 14.4 3 Sudeste 10 Este 0 1015.6 1.1 93
2019-04-12 10:00:00 13.1 5 Este 11 Sudeste 0 1015.3 1.1 93
2019-04-12 09:00:00 11.5 4 Este 9 Este 0 1015 1 92
2019-04-12 08:00:00 11.8 5 Este 11 Sudeste 0 1014.5 0.4 91
2019-04-12 07:00:00 12.2 2 Nordeste 6 Norte 0 1014.2 0 89
2019-04-12 06:00:00 12.6 3 Este 6 Este 0 1014 -0.5 89
2019-04-12 05:00:00 12.7 3 Este 12 Sudeste 0 1014.1 -0.9 88
2019-04-12 04:00:00 12.9 5 Este 12 Este 0 1014.2 -1.1 86
2019-04-12 03:00:00 13.8 5 Sudeste 11 Sudeste 0 1014.5 -1.1 80
2019-04-12 02:00:00 16.1 4 Noroeste 17 Oeste 0 1015 -0.5 73
2019-04-12 01:00:00 15.8 13 Oeste 19 Oeste 0 1015.3 0.1 81
2019-04-12 00:00:00 15.9 11 Oeste 17 Oeste 0 1015.6 0.9 77
2019-04-11 23:00:00 16 8 Oeste 21 Oeste 0 1015.5 1 74
2019-04-11 22:00:00 15.9 14 Oeste 27 Oeste 0 1015.2 0.6 76
2019-04-11 21:00:00 16 18 Oeste 31 Oeste 0 1014.7 0.1 74
2019-04-11 20:00:00 16.8 18 Oeste 31 Oeste 0 1014.5 -0.4 67
2019-04-11 19:00:00 17.1 18 Oeste 27 Oeste 0 1014.6 -0.8 61
2019-04-11 18:00:00 17.5 15 Oeste 27 Oeste 0 1014.6 -1.3 58
2019-04-11 17:00:00 17.2 16 Oeste 26 Oeste 0 1014.9 -1.4 59
2019-04-11 16:00:00 16.6 18 Oeste 27 Oeste 0 1015.4 -1.1 64
2019-04-11 15:00:00 16.4 15 Oeste 24 Oeste 0 1015.9 -0.8 65
2019-04-11 14:00:00 16.2 14 Oeste 21 Noroeste 0 1016.3 -0.1 64
2019-04-11 13:00:00 16.2 10 Oeste 17 Oeste 0 1016.5 0.3 61
2019-04-11 12:00:00 15.2 6 Oeste 11 Oeste 0 1016.7 0.8 63
2019-04-11 11:00:00 14.2 4 Noroeste 8 Nordeste 0 1016.4 0.9 67
2019-04-11 10:00:00 13.2 4 Norte 9 Nordeste 0 1016.2 1.1 69
2019-04-11 09:00:00 11.4 4 Norte 10 Norte 0 1015.9 0.9 75
2019-04-11 08:00:00 11.5 4 Norte 8 Norte 0 1015.5 0.3 74
2019-04-11 07:00:00 11.9 0 Calma 13 Norte 0 1015.1 -0.1 73
2019-04-11 06:00:00 12.9 6 Norte 13 Norte 0 1015 -0.3 72
2019-04-11 05:00:00 13.4 3 Norte 18 Norte 0 1015.2 -0.4 71
2019-04-11 04:00:00 14.1 11 Norte 24 Norte 0 1015.2 -0.4 70
2019-04-11 03:00:00 14.7 11 Norte 28 Noroeste 0 1015.3 -0.2 71
2019-04-11 02:00:00 15.4 15 Noroeste 33 Noroeste 0 1015.6 0.2 70
2019-04-11 01:00:00 16.1 18 Noroeste 40 Noroeste 0 1015.6 0.8 70
2019-04-11 00:00:00 16.7 24 Noroeste 41 Noroeste 0 1015.5 1.6 66
2019-04-10 23:00:00 16.9 24 Noroeste 38 Noroeste 0 1015.4 1.5 67
2019-04-10 22:00:00 16.5 19 Oeste 34 Oeste 0 1014.8 0.8 80
2019-04-10 21:00:00 16.2 24 Oeste 37 Oeste 0 1013.9 -0.1 79
2019-04-10 20:00:00 16.9 24 Oeste 41 Oeste 0 1013.9 -0.7 71
2019-04-10 19:00:00 17.3 27 Oeste 42 Oeste 0 1014 -1.2 68
2019-04-10 18:00:00 17.1 28 Oeste 40 Oeste 0 1014 -1.6 67
2019-04-10 17:00:00 16.9 25 Oeste 37 Oeste 0 1014.6 -1.4 66
2019-04-10 16:00:00 16 24 Oeste 37 Oeste 0 1015.2 -1.4 66
2019-04-10 15:00:00 15.5 22 Oeste 37 Noroeste 0 1015.6 -1.1 65
2019-04-10 14:00:00 14.9 21 Noroeste 37 Noroeste 0 1016 -0.6 66
2019-04-10 13:00:00 14.5 16 Noroeste 28 Noroeste 0 1016.6 0.1 66
2019-04-10 12:00:00 14.3 19 Noroeste 28 Noroeste 0 1016.7 0.5 67
2019-04-10 11:00:00 14.1 15 Noroeste 28 Noroeste 0 1016.6 1.1 68
2019-04-10 10:00:00 13.3 14 Noroeste 27 Noroeste 0 1016.5 1 74
2019-04-10 09:00:00 12.5 12 Noroeste 23 Noroeste 0 1016.2 0.6 78
2019-04-10 08:00:00 12.2 9 Noroeste 21 Noroeste 0 1015.5 -0.2 77
2019-04-10 07:00:00 12 9 Norte 22 Noroeste 0 1015.5 -0.2 75
2019-04-10 06:00:00 12.4 12 Noroeste 28 Norte 0 1015.6 -0.5 74
2019-04-10 05:00:00 13 14 Noroeste 26 Noroeste 0 1015.7 -0.4 74
2019-04-10 04:00:00 13.5 11 Noroeste 30 Noroeste 0 1015.7 -0.3 72
2019-04-10 03:00:00 14.1 17 Noroeste 33 Noroeste 0 1016.1 0.3 71
2019-04-10 02:00:00 14.6 18 Noroeste 33 Noroeste 0 1016.1 0.4 66
2019-04-10 01:00:00 15.3 17 Noroeste 42 Noroeste 0 1016 0.8 63
2019-04-10 00:00:00 15.9 21 Noroeste 34 Noroeste 0 1015.8 0.9 70
2019-04-09 23:00:00 15.7 23 Oeste 38 Oeste 0 1015.7 0.8 73
2019-04-09 22:00:00 15.5 24 Oeste 37 Oeste 0 1015.2 0.2 71
2019-04-09 21:00:00 15.5 25 Oeste 39 Oeste 0 1014.9 -0.2 69
2019-04-09 20:00:00 16.3 25 Oeste 39 Oeste 0 1014.9 -0.5 65
2019-04-09 19:00:00 16.5 27 Oeste 40 Oeste 0 1015 -0.8 61
2019-04-09 18:00:00 17 24 Oeste 38 Oeste 0 1015.1 -1 60
2019-04-09 17:00:00 17.2 19 Oeste 42 Oeste 0 1015.4 -1.1 56
2019-04-09 16:00:00 17.8 24 Oeste 44 Oeste 0 1015.8 -1 61
2019-04-09 15:00:00 17 20 Oeste 35 Oeste 0 1016.1 -0.7 60
2019-04-09 14:00:00 17.3 21 Oeste 36 Noroeste 0 1016.5 0.1 60
2019-04-09 13:00:00 16.6 16 Oeste 31 Oeste 0 1016.8 0.5 60
2019-04-09 12:00:00 16.1 17 Oeste 28 Oeste 0 1016.8 0.7 67
2019-04-09 11:00:00 16.2 17 Oeste 28 Oeste 0 1016.4 1 64
2019-04-09 10:00:00 15.5 15 Oeste 23 Noroeste 0 1016.3 1.1 64
2019-04-09 09:00:00 14.9 13 Oeste 24 Oeste 0 1016.1 0.7 67
2019-04-09 08:00:00 14.4 10 Oeste 21 Noroeste 0 1015.4 0.1 68
2019-04-09 07:00:00 14.5 12 Noroeste 22 Noroeste 0 1015.2 -0.4 68
2019-04-09 06:00:00 14.6 13 Noroeste 25 Noroeste 0 1015.4 -0.3 68
2019-04-09 05:00:00 14.6 15 Noroeste 23 Noroeste 0 1015.3 -0.3 68
2019-04-09 04:00:00 14.7 14 Noroeste 27 Noroeste 0 1015.6 0.3 63
2019-04-09 03:00:00 14.8 15 Noroeste 30 Noroeste 0 1015.7 0.3 65
2019-04-09 02:00:00 15.1 20 Noroeste 31 Noroeste 0 1015.6 0.3 70
2019-04-09 01:00:00 14.9 16 Oeste 31 Oeste 0 1015.3 0.7 74
2019-04-09 00:00:00 14.6 19 Oeste 31 Oeste 0 1015.4 1.2 71
2019-04-08 23:00:00 14.9 20 Oeste 31 Oeste 0 1015.3 1.4 77
2019-04-08 22:00:00 14.8 19 Oeste 40 Oeste 0 1014.6 0.8 74
2019-04-08 21:00:00 15 25 Oeste 37 Oeste 0 1014.2 0.6 80
2019-04-08 20:00:00 16 23 Oeste 33 Oeste 0 1013.9 -0.1 81
2019-04-08 19:00:00 16 15 Oeste 28 Oeste 0 1013.8 -0.7 82
2019-04-08 18:00:00 15.5 15 Sudoeste 27 Oeste 0 1013.6 -1.1 87
2019-04-08 17:00:00 14.7 13 Oeste 30 Oeste 0.4 1014 -0.7 91
2019-04-08 16:00:00 14.2 20 Oeste 32 Oeste 1.2 1014.5 -0.5 91
2019-04-08 15:00:00 16.4 17 Oeste 37 Sudoeste 0 1014.7 0 77
2019-04-08 14:00:00 18 19 Sudoeste 37 Sudoeste 0 1014.7 0.4 76
2019-04-08 13:00:00 17.4 19 Sudoeste 41 Sudoeste 0 1015 0.9 77
2019-04-08 12:00:00 17.3 16 Sudoeste 31 Sudoeste 0 1014.7 0.6 79
2019-04-08 11:00:00 16.6 13 Sudoeste 31 Sudoeste 0 1014.3 0.6 81
2019-04-08 10:00:00 16.1 13 Sudoeste 26 Sudoeste 0 1014.1 0.8 83
2019-04-08 09:00:00 15.4 10 Sudoeste 21 Sudoeste 0 1014.1 0.5 91
2019-04-08 08:00:00 15.4 12 Sudoeste 22 Sudoeste 0 1013.7 -0.1 89
2019-04-08 07:00:00 15.4 10 Sudoeste 21 Sudoeste 0 1013.3 -0.6 86
2019-04-08 06:00:00 15.7 13 Sudoeste 27 Oeste 0 1013.6 -0.7 85
2019-04-08 05:00:00 15.8 12 Sudoeste 23 Sudoeste 0 1013.8 -0.9 91
2019-04-08 04:00:00 15.8 11 Sudoeste 24 Sudoeste 0 1013.9 -0.8 91
2019-04-08 03:00:00 15.6 10 Sudoeste 27 Sudoeste 0 1014.3 -0.7 90
2019-04-08 02:00:00 15.7 11 Sudoeste 22 Sudoeste 0 1014.7 -0.1 89
2019-04-08 01:00:00 15.5 11 Sudoeste 25 Sudoeste 0 1014.7 0.1 89
2019-04-08 00:00:00 15.7 12 Sudoeste 24 Sudoeste 0 1015 0.8 91
2019-04-07 23:00:00 15.9 12 Sudoeste 26 Sudoeste 0 1014.8 0.9 91
2019-04-07 22:00:00 15.6 13 Oeste 31 Oeste 0.1 1014.6 1.3 92
2019-04-07 21:00:00 15.3 15 Oeste 38 Oeste 1.3 1014.2 1.3 92
2019-04-07 20:00:00 15.4 22 Oeste 43 Oeste 0.1 1013.9 0.8 91
2019-04-07 19:00:00 17.2 21 Oeste 43 Sudoeste 0 1013.3 -0.2 79
2019-04-07 18:00:00 17.2 22 Sudoeste 40 Sudoeste 0 1012.9 -0.8 76
2019-04-07 17:00:00 16.9 18 Oeste 46 Sudoeste 0 1013.1 -0.7 73
2019-04-07 16:00:00 17.5 23 Sudoeste 41 Oeste 0 1013.5 -0.3 68
2019-04-07 15:00:00 16.9 18 Sudoeste 39 Sudoeste 0 1013.7 -0.1 66
2019-04-07 14:00:00 17.5 19 Sudoeste 40 Oeste 0 1013.8 0.9 62
2019-04-07 13:00:00 17.2 26 Oeste 38 Oeste 0 1013.8 1.3 59
2019-04-07 12:00:00 16.6 23 Oeste 36 Oeste 0 1013.8 2 62
2019-04-07 11:00:00 15.7 24 Oeste 37 Oeste 0 1012.9 1.6 66
2019-04-07 10:00:00 15.6 23 Oeste 36 Oeste 0 1012.5 1.6 61
2019-04-07 09:00:00 14.6 20 Oeste 28 Oeste 0 1011.8 1.1 66
2019-04-07 08:00:00 14 19 Oeste 30 Oeste 0 1011.3 0.6 71
2019-04-07 07:00:00 14.2 19 Oeste 31 Oeste 0 1010.9 -0.1 68
2019-04-07 06:00:00 14.5 20 Oeste 35 Oeste 0 1010.7 -0.8 69
2019-04-07 05:00:00 14 17 Oeste 37 Oeste 0 1010.7 -0.6 70
2019-04-07 04:00:00 13.6 22 Oeste 35 Oeste 0 1011 -0.2 70
2019-04-07 03:00:00 12.4 14 Oeste 46 Oeste 0.3 1011.5 0.4 79
2019-04-07 02:00:00 14.1 21 Oeste 44 Oeste 0 1011.3 0.4 68
2019-04-07 01:00:00 14.2 22 Oeste 38 Oeste 0 1011.2 1.2 69
2019-04-07 00:00:00 13.9 25 Oeste 48 Oeste 0 1011.1 1.5 68
2019-04-06 23:00:00 14.2 30 Oeste 45 Oeste 0 1010.9 2.3 66
2019-04-06 22:00:00 14.2 29 Oeste 50 Oeste 0 1010 1.8 68
2019-04-06 21:00:00 14.2 32 Oeste 55 Oeste 0 1009.6 1.9 64
2019-04-06 20:00:00 15.2 31 Oeste 53 Oeste 0 1008.6 0.9 63
2019-04-06 19:00:00 15.4 35 Oeste 54 Oeste 0 1008.2 0.3 59
2019-04-06 18:00:00 14.9 31 Oeste 52 Oeste 0 1007.7 -0.7 64
2019-04-06 17:00:00 15.4 33 Oeste 50 Oeste 0 1007.7 -0.4 65
2019-04-06 16:00:00 14.5 29 Oeste 44 Sudoeste 0.2 1007.9 -0.5 70
2019-04-06 15:00:00 12.6 28 Oeste 46 Oeste 0.1 1008.4 0.3 70
2019-04-06 14:00:00 14.5 20 Oeste 32 Oeste 0 1008.1 0.3 71
2019-04-06 13:00:00 12.5 19 Oeste 46 Noroeste 1 1008.4 0.8 80
2019-04-06 12:00:00 13.6 14 Oeste 29 Oeste 2.4 1008.1 1.1 81
2019-04-06 11:00:00 12.7 14 Oeste 23 Oeste 0.2 1007.8 1.2 83
2019-04-06 10:00:00 11.9 17 Oeste 36 Oeste 0.3 1007.6 1.1 76
2019-04-06 09:00:00 11.9 21 Oeste 47 Oeste 2.1 1007 0.7 78
2019-04-06 08:00:00 12.5 23 Oeste 50 Oeste 0.4 1006.6 0.2 73
2019-04-06 07:00:00 12.8 16 Oeste 52 Oeste 0.1 1006.5 0.2 64
2019-04-06 06:00:00 11.4 13 Oeste 45 Noroeste 1 1006.3 -0.4 81
2019-04-06 05:00:00 12 30 Oeste 55 Oeste 0 1006.4 -0.7 72
2019-04-06 04:00:00 12.3 28 Oeste 45 Noroeste 0.6 1006.3 -0.8 74
2019-04-06 03:00:00 13.9 21 Oeste 41 Oeste 0 1006.7 -0.3 65
2019-04-06 02:00:00 12.1 27 Oeste 42 Oeste 0.3 1007.1 0.9 65
2019-04-06 01:00:00 13.3 19 Oeste 38 Oeste 0 1007.1 1.9 62
2019-04-06 00:00:00 13.2 24 Oeste 45 Noroeste 0 1007 2.7 59
2019-04-05 23:00:00 13.3 28 Oeste 45 Noroeste 0 1006.2 2.3 57
2019-04-05 22:00:00 13.7 25 Oeste 51 Oeste 0 1005.2 1.8 60
2019-04-05 21:00:00 13.8 34 Oeste 55 Oeste 0.2 1004.3 1.3 58
2019-04-05 20:00:00 13.9 31 Oeste 50 Oeste 0 1003.9 0.9 60
2019-04-05 19:00:00 14.1 31 Oeste 54 Oeste 0 1003.4 0.5 56
2019-04-05 18:00:00 14.3 28 Oeste 50 Oeste 0 1003 0 55
2019-04-05 17:00:00 14.5 30 Oeste 49 Oeste 0 1003 -0.1 52
2019-04-05 16:00:00 13.9 26 Oeste 43 Oeste 0 1002.9 0.4 54
2019-04-05 15:00:00 13.8 24 Oeste 46 Oeste 0 1003 1.6 56
2019-04-05 14:00:00 13.6 26 Oeste 40 Noroeste 0 1003.1 2.6 58
2019-04-05 13:00:00 13.4 30 Noroeste 48 Noroeste 0 1002.5 2.4 60
2019-04-05 12:00:00 13.4 31 Noroeste 50 Noroeste 0.1 1001.4 1.1 70
2019-04-05 11:00:00 12.4 32 Oeste 58 Oeste 2.1 1000.5 0.2 86
2019-04-05 10:00:00 13.2 18 Oeste 40 Sudoeste 0.3 1000.1 -0.2 83
2019-04-05 09:00:00 12.6 17 Sudoeste 41 Sudoeste 0.4 1000.3 0 86
2019-04-05 08:00:00 12.1 22 Oeste 52 Oeste 4.5 1000.3 -1 90
2019-04-05 07:00:00 13.4 20 Sudoeste 53 Oeste 5.6 1000.3 -1.4 84
2019-04-05 06:00:00 13.8 23 Sudoeste 45 Sudoeste 0.6 1000.3 -2.5 82
2019-04-05 05:00:00 13.8 18 Sudoeste 42 Sudoeste 0 1001.3 -2 73
2019-04-05 04:00:00 14.7 19 Sudoeste 39 Sudoeste 0 1001.7 -1.9 62
2019-04-05 03:00:00 14.4 18 Oeste 39 Oeste 0 1002.8 -0.8 59
2019-04-05 02:00:00 14.2 23 Oeste 36 Oeste 0 1003.3 0 59
2019-04-05 01:00:00 14 21 Oeste 41 Oeste 0 1003.6 0.7 61
2019-04-05 00:00:00 14 23 Oeste 40 Oeste 0 1003.6 1.1 59
2019-04-04 23:00:00 14.1 22 Oeste 36 Oeste 0 1003.3 0.7 58
2019-04-04 22:00:00 14.3 22 Oeste 35 Oeste 0 1002.9 0.4 54
2019-04-04 21:00:00 14.2 16 Oeste 32 Oeste 0 1002.5 0 47
2019-04-04 20:00:00 15.3 19 Oeste 37 Oeste 0 1002.6 0.1 46
2019-04-04 19:00:00 15.8 23 Oeste 36 Oeste 0 1002.5 -0.4 44
2019-04-04 18:00:00 15.8 22 Oeste 35 Oeste 0 1002.5 -0.9 46
2019-04-04 17:00:00 15.3 18 Oeste 33 Oeste 0 1002.5 -1.2 52
2019-04-04 16:00:00 15.2 21 Oeste 35 Oeste 0 1002.9 -0.8 58
2019-04-04 15:00:00 14.9 17 Oeste 26 Oeste 0 1003.4 -0.4 56
2019-04-04 14:00:00 15.5 13 Oeste 23 Oeste 0 1003.7 0.2 46
2019-04-04 13:00:00 15.1 10 Oeste 17 Noroeste 0 1003.7 0.7 47
2019-04-04 12:00:00 14.4 5 Noroeste 12 Noroeste 0 1003.8 1.1 52
2019-04-04 11:00:00 13.2 4 Noroeste 12 Noroeste 0 1003.5 1.5 56
2019-04-04 10:00:00 11.4 3 Norte 11 Norte 0 1003 1.4 65
2019-04-04 09:00:00 9.7 3 Norte 12 Norte 0 1002.7 1.2 67
2019-04-04 08:00:00 10.4 3 Nordeste 12 Norte 0 1002 0.5 65
2019-04-04 07:00:00 11.7 4 Norte 17 Norte 0 1001.6 -0.1 68
2019-04-04 06:00:00 12.4 8 Norte 23 Norte 0 1001.5 -0.4 64
2019-04-04 05:00:00 12.9 10 Norte 24 Norte 0 1001.5 -0.8 60
2019-04-04 04:00:00 13.6 10 Noroeste 30 Noroeste 0 1001.7 -0.8 58
2019-04-04 03:00:00 14.3 15 Noroeste 33 Noroeste 0 1001.9 -0.7 55
2019-04-04 02:00:00 15.3 16 Noroeste 29 Noroeste 0 1002.3 -0.6 52
2019-04-04 01:00:00 16.2 13 Noroeste 31 Noroeste 0 1002.5 -0.2 54
2019-04-04 00:00:00 15.6 12 Oeste 26 Oeste 0 1002.6 0.2 76
2019-04-03 23:00:00 15.6 15 Oeste 26 Oeste 0 1002.9 0.2 79
2019-04-03 22:00:00 15.7 19 Oeste 28 Oeste 0 1002.7 -0.3 75
2019-04-03 21:00:00 16 16 Oeste 27 Oeste 0 1002.4 -0.8 69
2019-04-03 20:00:00 16.9 19 Oeste 30 Noroeste 0 1002.7 -1.1 62
2019-04-03 19:00:00 18 16 Oeste 29 Oeste 0 1003 -1.3 51
2019-04-03 18:00:00 18.4 21 Noroeste 31 Noroeste 0 1003.2 -1.9 49
2019-04-03 17:00:00 18.9 16 Oeste 27 Noroeste 0 1003.8 -2.3 54
2019-04-03 16:00:00 18.4 17 Noroeste 30 Noroeste 0 1004.3 -2.4 50
2019-04-03 15:00:00 18.2 17 Noroeste 27 Noroeste 0 1005.1 -1.8 61
2019-04-03 14:00:00 17.3 17 Noroeste 26 Noroeste 0 1006.1 -0.3 71
2019-04-03 13:00:00 17.3 11 Oeste 19 Oeste 0 1006.7 0.3 75
2019-04-03 12:00:00 16.7 10 Oeste 16 Oeste 0 1006.9 0.4 77
2019-04-03 11:00:00 16.2 3 Noroeste 10 Norte 0 1006.4 -0.2 79
2019-04-03 10:00:00 13.9 2 Noroeste 6 Norte 0 1006.4 -0.7 90
2019-04-03 09:00:00 13 3 Noroeste 5 Noroeste 0 1006.5 -1.4 91
2019-04-03 08:00:00 12.6 3 Este 12 Este 0 1006.6 -2.5 92
2019-04-03 07:00:00 12.8 5 Este 9 Este 0 1007.1 -2.5 92
2019-04-03 06:00:00 13.3 4 Este 7 Sudeste 0 1007.9 -2.4 91
2019-04-03 05:00:00 13.7 3 Este 7 Sudeste 0 1009.1 -1.9 90
2019-04-03 04:00:00 14.2 2 Sudeste 7 Sudeste 0 1009.6 -1.7 88
2019-04-03 03:00:00 15.2 0 Calma 6 Noroeste 0 1010.3 -1.4 86
2019-04-03 02:00:00 15.9 0 Calma 11 Noroeste 0 1011 -0.5 85
2019-04-03 01:00:00 15.9 5 Noroeste 12 Norte 0 1011.3 0.3 85
2019-04-03 00:00:00 16.1 4 Noroeste 17 Noroeste 0 1011.7 1.3 82
2019-04-02 23:00:00 16.6 6 Noroeste 19 Noroeste 0 1011.5 0.7 78
2019-04-02 22:00:00 16.9 7 Oeste 13 Noroeste 0 1011 0 75
2019-04-02 21:00:00 17.2 9 Noroeste 18 Noroeste 0 1010.4 -0.9 73
2019-04-02 20:00:00 17.8 9 Noroeste 19 Oeste 0 1010.8 -0.9 71
2019-04-02 19:00:00 18 13 Oeste 24 Oeste 0 1011 -1 71
2019-04-02 18:00:00 17.7 14 Oeste 25 Oeste 0 1011.3 -1.1 74
2019-04-02 17:00:00 17.4 11 Oeste 22 Noroeste 0 1011.7 -1.4 72
2019-04-02 16:00:00 18.1 12 Oeste 22 Noroeste 0 1012 -1.4 70
2019-04-02 15:00:00 18.8 11 Noroeste 18 Noroeste 0 1012.4 -1.3 61
2019-04-02 14:00:00 19.2 8 Norte 19 Norte 0 1013.1 -0.6 59
2019-04-02 13:00:00 18.5 6 Nordeste 16 Este 0 1013.4 0.1 61
2019-04-02 12:00:00 17.8 6 Norte 15 Norte 0 1013.7 0.6 68
2019-04-02 11:00:00 17 4 Nordeste 12 Este 0 1013.7 0.9 78
2019-04-02 10:00:00 14.7 6 Este 11 Este 0 1013.3 0.6 94
2019-04-02 09:00:00 12.1 6 Este 12 Sudeste 0 1013.1 0.6 94
2019-04-02 08:00:00 11.9 6 Sudeste 16 Sudeste 0 1012.8 0 93
2019-04-02 07:00:00 12.4 6 Sudeste 11 Sudeste 0 1012.7 -0.3 93
2019-04-02 06:00:00 12.5 4 Este 11 Sudeste 0 1012.5 -0.9 92
2019-04-02 05:00:00 12.7 4 Sudeste 11 Sudeste 0 1012.8 -1.2 91
2019-04-02 04:00:00 13.1 5 Sudeste 10 Sur 0 1013 -0.8 90
2019-04-02 03:00:00 13.8 2 Este 9 Sudeste 0 1013.4 -0.4 89
2019-04-02 02:00:00 14.8 0 Calma 4 Sudeste 0 1014 0.5 86
2019-04-02 01:00:00 15.1 0 Calma 5 Sudoeste 0 1013.8 0.9 82
2019-04-02 00:00:00 15.7 4 Oeste 10 Oeste 0 1013.8 1.8 80
2019-04-01 23:00:00 15.6 7 Oeste 12 Oeste 0 1013.5 1.9 81
2019-04-01 22:00:00 16.2 6 Oeste 17 Oeste 0 1012.9 1.8 79
2019-04-01 21:00:00 16.7 9 Sudoeste 23 Sudoeste 0 1012 0.9 76
2019-04-01 20:00:00 17.4 11 Sudoeste 24 Sudoeste 0 1011.6 0.6 71
2019-04-01 19:00:00 18.4 15 Sudoeste 27 Sudoeste 0 1011.1 -0.3 68
2019-04-01 18:00:00 18.7 11 Sudoeste 30 Sudoeste 0 1011.1 0 66
2019-04-01 17:00:00 18.7 14 Sudoeste 35 Sudoeste 0 1011 -0.5 67
2019-04-01 16:00:00 19.1 17 Sudoeste 33 Sur 0 1011.4 0 65
2019-04-01 15:00:00 19.5 15 Sudoeste 32 Sur 0 1011.1 -0.2 64
2019-04-01 14:00:00 18.6 13 Sudoeste 33 Sudoeste 0.1 1011.5 0.5 67
2019-04-01 13:00:00 17.8 8 Sur 22 Sudoeste 0 1011.4 1.2 71
2019-04-01 12:00:00 17.3 8 Sur 21 Sur 0 1011.3 1.8 81
2019-04-01 11:00:00 14.5 5 Sudeste 30 Sur 0 1011 2.3 86
2019-04-01 10:00:00 15.9 4 Sudoeste 17 Sudoeste 0 1010.2 1.9 85
2019-04-01 09:00:00 15.3 7 Sudoeste 18 Sudoeste 0 1009.5 1.4 88
2019-04-01 08:00:00 15.2 4 Sur 18 Sudoeste 0.3 1008.7 0.6 86
2019-04-01 07:00:00 15 9 Sur 17 Sur 0 1008.3 0 85
2019-04-01 06:00:00 15.6 6 Sudoeste 23 Sudoeste 0 1008.1 -0.7 91
2019-04-01 05:00:00 15.6 9 Sudoeste 22 Sur 0 1008.1 -0.8 91
2019-04-01 04:00:00 15.8 12 Sur 26 Sur 0 1008.3 -0.7 92
2019-04-01 03:00:00 15.9 10 Sur 24 Sur 0 1008.8 -0.1 91
2019-04-01 02:00:00 15.3 3 Sudeste 12 Sudeste 0 1008.9 0 91
2019-04-01 01:00:00 15.2 5 Sudeste 11 Sudeste 0 1009 0.7 90
2019-04-01 00:00:00 15.5 3 Sudeste 10 Sudeste 0 1008.9 1.2 89
2019-03-31 23:00:00 16.1 4 Sur 13 Sudoeste 0 1008.9 1.6 88
2019-03-31 22:00:00 16.6 9 Sudoeste 18 Sur 0 1008.3 1.3 87
2019-03-31 21:00:00 16.9 8 Sur 22 Sur 0 1007.7 0.8 84
2019-03-31 20:00:00 18.2 9 Sudoeste 23 Sur 0 1007.3 0.4 76
2019-03-31 19:00:00 19.3 10 Sudoeste 27 Sudoeste 0 1007 -0.2 69
2019-03-31 18:00:00 19.8 13 Sudoeste 28 Sudoeste 0 1006.9 -0.9 66
2019-03-31 17:00:00 20 12 Sudoeste 25 Sudoeste 0 1006.9 -1.5 63
2019-03-31 16:00:00 20.4 11 Sudoeste 27 Sudoeste 0 1007.2 -1.4 61
2019-03-31 15:00:00 20.6 12 Sur 23 Sur 0 1007.8 -1.2 61
2019-03-31 14:00:00 18.4 10 Sudoeste 20 Sudoeste 0 1008.4 -0.2 70
2019-03-31 13:00:00 19.2 8 Oeste 16 Sudeste 0 1008.6 0.2 67
2019-03-31 12:00:00 19 8 Este 21 Sudeste 0 1009 0.7 69
2019-03-31 11:00:00 16.3 10 Este 22 Este 0 1008.6 0.7 78
2019-03-31 10:00:00 14.9 12 Este 27 Este 0 1008.4 0.5 81
2019-03-31 09:00:00 13.8 11 Este 20 Este 0 1008.3 -0.1 82
2019-03-31 08:00:00 13.9 12 Este 24 Este 0 1007.9 -1.1 83
2019-03-31 07:00:00 14.3 11 Este 22 Este 0 1007.9 -1.4 82
2019-03-31 06:00:00 14.7 15 Este 28 Este 0 1008.4 -1.6 80
2019-03-31 05:00:00 15 13 Este 31 Este 0 1009 -1.1 80
2019-03-31 03:00:00 15.4 13 Este 30 Nordeste 0 1010 -0.7 78
2019-03-31 01:00:00 15.1 13 Este 29 Este 0 1010.1 -0.9 77
2019-03-31 00:00:00 15.1 17 Sudeste 33 Sudeste 0 1010.6 0.7 76
2019-03-30 23:00:00 15.2 14 Este 43 Sudeste 0 1010.7 1.2 76
2019-03-30 22:00:00 15.1 16 Sudeste 32 Sudeste 0 1011 0.9 75
2019-03-30 21:00:00 15.3 15 Este 39 Sudeste 0 1009.9 -0.3 74
2019-03-30 20:00:00 15.7 22 Este 45 Este 0 1009.5 -0.7 73
2019-03-30 19:00:00 16.4 20 Este 44 Sudeste 0 1010.1 -0.4 69
2019-03-30 18:00:00 17.1 23 Este 43 Sudeste 0 1010.2 -0.5 67
2019-03-30 17:00:00 17.7 22 Este 49 Sudeste 0 1010.2 -0.6 64
2019-03-30 16:00:00 19.2 24 Este 51 Sudeste 0 1010.5 -1.3 59
2019-03-30 15:00:00 19.4 22 Este 51 Este 0 1010.7 -2 59
2019-03-30 14:00:00 20.8 27 Este 55 Este 0 1010.8 -2.3 55
2019-03-30 13:00:00 20.1 23 Este 52 Este 0 1011.8 -0.5 56
2019-03-30 12:00:00 19.7 24 Este 53 Este 0 1012.7 0.4 57
2019-03-30 11:00:00 18.9 26 Este 55 Sudeste 0 1013.1 0.8 60
2019-03-30 10:00:00 17.5 26 Este 55 Sudeste 0 1012.3 0.3 64
2019-03-30 09:00:00 16 24 Este 48 Sudeste 0 1012.3 0.4 68
2019-03-30 08:00:00 14.4 22 Este 52 Este 0 1012.3 0.2 71
2019-03-30 07:00:00 14.3 27 Este 49 Sudeste 0 1012 -0.4 71
2019-03-30 06:00:00 14 25 Este 54 Este 0.1 1011.9 -0.9 72
2019-03-30 05:00:00 13.9 27 Este 55 Sudeste 0.6 1012.1 -1.7 74
2019-03-30 04:00:00 14.7 29 Este 67 Sudeste 0 1012.4 -2.1 67
2019-03-30 03:00:00 14.6 32 Este 64 Sudeste 0 1012.8 -2 66
2019-03-30 02:00:00 14.4 23 Este 53 Este 0 1013.8 -0.8 65
2019-03-30 01:00:00 14.4 23 Este 53 Este 0 1014.5 -0.7 67
2019-03-30 00:00:00 14.7 26 Este 57 Este 0 1014.8 -0.2 66
2019-03-29 23:00:00 14.6 28 Este 54 Sudeste 0 1014.6 -0.3 68
2019-03-29 22:00:00 14.6 25 Este 51 Este 0 1015.2 0.2 68
2019-03-29 21:00:00 14.9 26 Este 50 Este 0 1015 -0.2 65
2019-03-29 20:00:00 15.4 24 Este 53 Este 0 1014.9 -0.4 64
2019-03-29 19:00:00 16.8 26 Este 51 Este 0 1015 0 58
2019-03-29 18:00:00 18.4 28 Este 53 Este 0 1015.2 -0.6 54
2019-03-29 17:00:00 18.6 25 Este 54 Este 0 1015.3 -1.1 56
2019-03-29 16:00:00 18.6 32 Este 52 Este 0 1015 -1.6 54
2019-03-29 15:00:00 18.7 26 Este 50 Este 0 1015.8 -0.9 55
2019-03-29 14:00:00 19.7 27 Este 49 Este 0 1016.4 -0.3 52
2019-03-29 13:00:00 19.5 25 Este 53 Sudeste 0 1016.6 0 54
2019-03-29 12:00:00 19 30 Este 57 Sudeste 0 1016.7 0.3 55
2019-03-29 11:00:00 18.4 29 Este 63 Sudeste 0 1016.7 0.6 60
2019-03-29 10:00:00 17.4 23 Este 54 Sudeste 0 1016.6 0.8 61
2019-03-29 09:00:00 15.7 22 Este 46 Este 0 1016.4 0.5 65
2019-03-29 08:00:00 14.3 22 Este 45 Este 0 1016.1 0.1 68
2019-03-29 07:00:00 13.8 20 Este 45 Sudeste 0 1015.8 -0.3 69
2019-03-29 06:00:00 13.7 21 Este 43 Sudeste 0 1015.9 -0.4 69
2019-03-29 05:00:00 13.6 21 Este 46 Sudeste 0 1016 -0.2 68
2019-03-29 04:00:00 13.7 24 Este 48 Sudeste 0 1016.1 0.4 66
2019-03-29 03:00:00 13.8 21 Este 51 Sudeste 0 1016.3 0.4 65
2019-03-29 02:00:00 14.1 27 Este 63 Sudeste 0 1016.2 -0.7 61
2019-03-29 01:00:00 14.4 29 Este 58 Este 0 1015.7 -1.8 60
2019-03-29 00:00:00 14.6 31 Este 62 Sudeste 0 1015.9 -1.4 57
2019-03-28 23:00:00 14.6 18 Este 44 Este 0 1016.9 0.1 61
2019-03-28 22:00:00 14.6 18 Este 45 Este 0 1017.5 1.1 56
2019-03-28 21:00:00 14.7 18 Este 43 Este 0 1017.3 0.6 59
2019-03-28 20:00:00 15.4 19 Este 48 Este 0 1016.8 0.1 57
2019-03-28 19:00:00 17 28 Este 59 Este 0 1016.4 -0.3 51
2019-03-28 18:00:00 18.1 26 Este 55 Este 0 1016.7 -0.5 48
2019-03-28 17:00:00 18.9 30 Este 62 Este 0 1016.7 -1 47
2019-03-28 16:00:00 20 30 Este 62 Este 0 1016.7 -1.6 46
2019-03-28 15:00:00 20.3 32 Este 66 Este 0 1017.2 -1.5 46
2019-03-28 14:00:00 20.2 31 Este 55 Este 0 1017.7 -1.5 47
2019-03-28 13:00:00 20 30 Este 58 Este 0 1018.3 -0.5 46
2019-03-28 12:00:00 19.2 27 Este 59 Este 0 1018.7 0 48
2019-03-28 11:00:00 18.4 26 Este 56 Este 0 1019.2 0.5 51
2019-03-28 10:00:00 16.6 31 Este 63 Sudeste 0 1018.8 0.7 53
2019-03-28 09:00:00 15.4 25 Este 48 Este 0 1018.7 1.1 58
2019-03-28 08:00:00 13.4 17 Este 41 Este 0 1018.7 1.2 63
2019-03-28 07:00:00 13.1 15 Este 42 Este 0 1018.1 0.7 62
2019-03-28 06:00:00 13.1 19 Este 34 Este 0 1017.6 0.5 62
2019-03-28 05:00:00 13.3 20 Este 36 Este 0 1017.5 -0.2 62
2019-03-28 04:00:00 13.4 18 Este 49 Este 0 1017.4 -0.8 62
2019-03-28 03:00:00 13.8 21 Este 51 Sudeste 0 1017.1 -1.4 61
2019-03-28 02:00:00 14.1 24 Este 50 Este 0 1017.7 -0.7 59
2019-03-28 01:00:00 14.4 23 Este 57 Este 0 1018.2 -0.1 62
2019-03-28 00:00:00 14.2 19 Este 44 Este 0 1018.5 0.6 62
2019-03-27 23:00:00 14.3 23 Este 46 Sudeste 0 1018.4 1.2 60
2019-03-27 22:00:00 14.4 20 Este 42 Este 0 1018.3 1.7 59
2019-03-27 21:00:00 14.4 22 Este 54 Sudeste 0 1017.9 1.9 57
2019-03-27 20:00:00 15 19 Este 53 Sudeste 0 1017.2 1.3 53
2019-03-27 19:00:00 16.8 21 Este 54 Sudeste 0 1016.6 0.8 50
2019-03-27 18:00:00 17.4 26 Este 61 Sudeste 0 1016 0.2 46
2019-03-27 17:00:00 18.9 26 Este 63 Este 0 1015.9 -0.2 42
2019-03-27 16:00:00 19.8 28 Este 57 Este 0 1015.8 -0.4 38
2019-03-27 15:00:00 19.4 31 Este 65 Este 0 1015.8 -0.3 38
2019-03-27 14:00:00 20 31 Este 63 Este 0 1016.1 0.4 37
2019-03-27 13:00:00 18.9 39 Este 76 Este 0 1016.2 0.7 40
2019-03-27 12:00:00 18.5 32 Este 66 Este 0 1016.1 1.5 42
2019-03-27 11:00:00 17.6 30 Este 59 Este 0 1015.7 2.1 47
2019-03-27 10:00:00 16.6 27 Este 54 Este 0 1015.5 2.3 54
2019-03-27 09:00:00 15.3 26 Este 62 Este 0 1014.6 2.3 59
2019-03-27 08:00:00 14.5 28 Este 54 Este 0 1013.6 2 59
2019-03-27 07:00:00 14.6 26 Este 47 Nordeste 0 1013.2 1.6 56
2019-03-27 06:00:00 14.7 19 Este 46 Este 0 1012.3 0.4 54
2019-03-27 05:00:00 14.9 24 Este 53 Este 0 1011.6 0.9 52
2019-03-27 04:00:00 15 19 Este 55 Sudeste 0 1011.6 0.9 55
2019-03-27 03:00:00 15.5 26 Este 58 Sudeste 0 1011.9 1 50
2019-03-27 02:00:00 15.4 29 Este 63 Este 0 1010.7 0.9 53
2019-03-27 01:00:00 15.6 32 Este 60 Nordeste 0 1010.7 1.7 55
2019-03-27 00:00:00 16 28 Este 72 Sudeste 0 1010.9 1.9 57